Hindostan Falls, Indiana
Current Conditions -  °F | °C
As of 12:55 AM on Monday 22 Dec 2014 (Local Time) from KDCY Reporting Station
Scattered Clouds Scattered Clouds  
Wind Chill: 25°   Ceiling: Unl
Heat Index: 30°   Visibility: 7mi
Dew Point: 27°   Wind: 5mph
Humidity: 86%   Direction: 130°SE
Pressure: 30"   Gusts: NA
Location:  38.6262°N, 86.7615°W
Report Text: KDCY 220655Z AUTO 13004KT 7SM SCT100 M01/M03 A3000 RMK AO2 T10101030
Loading
Personal Weather Stations






























Interactive Weather Map New forecast layout! Learn more

10-Day Weather Forecast

Advertisements
Track Severe Weather on mobile